Time;durP1;ratioP1;P1;durP2;ratioP2;P2;SDS_P1;SDS_P2;PMS_P1;PMS_P2;Temp;Humidity;BMP_temperature;BMP_pressure;BME280_temperature;BME280_humidity;BME280_pressure;Samples;Min_cycle;Max_cycle;Signal;HPM_P1;HPM_P2
2023/03/26 00:02:16;;;;;;;1.67;0.60;;;;;;;11.90;62.45;97626.59;4486977;32;20630;-80
2023/03/26 00:04:45;;;;;;;3.78;0.77;;;;;;;11.58;62.83;97622.19;4486896;31;20088;-80
2023/03/26 00:07:12;;;;;;;2.95;0.80;;;;;;;11.28;63.91;97623.84;4486938;31;20478;-80
2023/03/26 00:13:20;;;;;;;;;;;;;;;11.34;61.79;97607.19;4487208;32;20666;-80
2023/03/26 00:15:47;;;;;;;1.12;0.60;;;;;;;11.86;59.23;97618.16;4486702;31;20307;-80
2023/03/26 00:18:14;;;;;;;4.68;1.00;;;;;;;12.99;55.57;97609.97;4486888;31;20089;-80
2023/03/26 00:20:41;;;;;;;1.20;0.60;;;;;;;13.06;54.82;97612.16;4486841;31;20129;-80
2023/03/26 00:23:08;;;;;;;1.00;0.60;;;;;;;12.88;54.97;97611.53;4486437;31;20190;-80
2023/03/26 00:25:38;;;;;;;1.20;0.60;;;;;;;12.82;54.95;97610.13;4486799;31;20100;-80
2023/03/26 00:28:06;;;;;;;1.73;0.60;;;;;;;12.86;54.77;97611.59;4486766;31;20596;-79
2023/03/26 00:30:40;;;;;;;1.33;0.50;;;;;;;12.35;56.17;97611.12;4486283;31;20149;-80
2023/03/26 00:33:10;;;;;;;2.65;0.70;;;;;;;11.87;58.27;97609.50;4486786;32;20072;-79
2023/03/26 00:35:37;;;;;;;2.58;0.70;;;;;;;11.66;59.48;97611.47;4488428;31;20161;-80
2023/03/26 00:38:04;;;;;;;1.00;0.62;;;;;;;11.88;58.82;97606.00;4488714;31;20408;-79
2023/03/26 00:40:35;;;;;;;1.55;0.65;;;;;;;12.63;56.28;97604.34;4488724;31;20084;-80
2023/03/26 00:43:09;;;;;;;0.62;0.40;;;;;;;12.17;57.43;97606.97;4488402;31;20076;-80
2023/03/26 00:45:35;;;;;;;0.95;0.60;;;;;;;12.46;57.41;97597.56;4487579;32;20115;-80
2023/03/26 00:48:02;;;;;;;1.00;0.45;;;;;;;12.11;58.11;97602.13;4488642;31;20100;-80
2023/03/26 00:50:29;;;;;;;0.85;0.50;;;;;;;12.60;55.82;97604.53;4488273;31;20084;-80
2023/03/26 00:52:57;;;;;;;1.90;0.70;;;;;;;12.89;54.17;97600.25;4488440;32;20089;-80
2023/03/26 00:55:24;;;;;;;2.33;0.70;;;;;;;12.22;56.20;97594.59;4488170;31;20089;-80
2023/03/26 01:02:03;;;;;;;1.95;0.80;;;;;;;12.55;55.41;97589.28;4488494;32;20413;-80
2023/03/26 01:14:25;;;;;;;0.65;0.47;;;;;;;12.69;54.20;97588.47;4488376;32;20496;-80
2023/03/26 01:16:55;;;;;;;1.12;0.70;;;;;;;12.04;56.78;97582.72;4484464;32;20582;-80
2023/03/26 01:22:41;;;;;;;1.40;0.70;;;;;;;11.80;56.71;97583.16;4488541;32;20111;-80
2023/03/26 01:25:08;;;;;;;1.00;0.52;;;;;;;12.00;54.42;97586.38;4486811;32;20088;-80
2023/03/26 01:27:41;;;;;;;0.73;0.57;;;;;;;11.76;55.59;97589.38;4488306;31;20072;-80
2023/03/26 01:30:20;;;;;;;1.35;0.50;;;;;;;12.37;52.96;97585.16;4487257;32;20104;-80
2023/03/26 01:33:17;;;;;;;1.75;0.62;;;;;;;11.43;55.28;97593.78;4488119;31;20088;-80
2023/03/26 01:35:44;;;;;;;1.50;0.70;;;;;;;11.84;54.78;97594.16;4487169;32;20132;-80
2023/03/26 01:38:29;;;;;;;0.52;0.50;;;;;;;12.09;54.02;97591.03;4488162;31;20076;-80
2023/03/26 01:41:06;;;;;;;0.73;0.70;;;;;;;11.56;55.56;97582.69;4488041;31;20153;-80
2023/03/26 01:43:42;;;;;;;1.55;0.80;;;;;;;10.39;60.45;97591.38;4487456;31;20161;-80
2023/03/26 01:46:10;;;;;;;1.43;0.67;;;;;;;11.06;59.18;97580.25;4488044;31;20148;-80
2023/03/26 01:48:40;;;;;;;1.85;0.90;;;;;;;11.64;56.66;97581.47;4486971;32;20106;-80
2023/03/26 01:51:08;;;;;;;1.52;0.80;;;;;;;12.59;52.95;97576.97;4488057;31;20088;-80
2023/03/26 01:53:40;;;;;;;1.40;0.80;;;;;;;12.65;52.13;97576.59;4487940;31;20157;-79
2023/03/26 01:56:12;;;;;;;1.73;0.85;;;;;;;12.19;52.78;97576.69;4488037;31;20085;-79
2023/03/26 01:58:53;;;;;;;1.70;0.77;;;;;;;11.96;53.27;97575.38;4487007;32;20080;-79
2023/03/26 02:01:29;;;;;;;1.12;0.80;;;;;;;13.17;50.22;97578.69;4487908;31;20092;-79
2023/03/26 02:04:07;;;;;;;1.92;0.85;;;;;;;12.94;51.38;97570.53;4487008;32;20100;-79
2023/03/26 02:06:41;;;;;;;2.65;1.20;;;;;;;12.32;53.32;97563.88;4486948;32;20099;-79
2023/03/26 02:12:36;;;;;;;3.22;1.23;;;;;;;12.48;53.49;97563.84;4487994;32;20174;-79
2023/03/26 02:15:04;;;;;;;1.55;1.00;;;;;;;12.61;53.15;97555.25;4487685;31;20615;-79
2023/03/26 02:17:31;;;;;;;2.15;0.90;;;;;;;12.42;53.89;97562.41;4487923;32;20094;-79
2023/03/26 02:20:03;;;;;;;1.90;1.08;;;;;;;11.82;55.12;97555.47;4487975;31;20137;-79
2023/03/26 02:22:30;;;;;;;2.08;0.80;;;;;;;11.29;56.73;97561.78;4487778;31;20149;-79
2023/03/26 02:24:57;;;;;;;2.22;1.10;;;;;;;11.48;56.60;97543.56;4487899;31;20153;-79
2023/03/26 02:31:51;;;;;;;2.78;1.00;;;;;;;11.84;55.67;97548.47;4487864;32;20115;-79
2023/03/26 02:34:18;;;;;;;3.05;1.15;;;;;;;11.70;56.31;97545.78;4487797;32;20088;-79
2023/03/26 02:36:45;;;;;;;1.85;0.82;;;;;;;11.85;55.72;97544.97;4487634;31;20084;-79
2023/03/26 02:39:13;;;;;;;3.35;1.17;;;;;;;11.61;56.27;97541.13;4487838;31;20080;-79
2023/03/26 02:41:40;;;;;;;4.72;1.10;;;;;;;11.35;57.56;97541.69;4487741;31;20163;-79
2023/03/26 02:44:06;;;;;;;1.60;0.90;;;;;;;10.67;60.79;97537.50;4487466;32;20088;-79
2023/03/26 02:46:33;;;;;;;3.05;1.10;;;;;;;10.38;61.96;97535.53;4487760;31;20149;-79
2023/03/26 02:52:29;;;;;;;1.83;0.88;;;;;;;10.50;62.09;97532.34;4487800;32;20141;-79
2023/03/26 02:54:56;;;;;;;2.50;1.17;;;;;;;10.12;64.21;97535.06;4487229;31;20157;-79
2023/03/26 03:01:51;;;;;;;3.37;0.90;;;;;;;11.48;59.37;97534.94;4487729;32;20094;-79
2023/03/26 03:04:18;;;;;;;3.03;1.00;;;;;;;10.57;63.22;97544.03;4487350;32;20453;-79
2023/03/26 03:06:45;;;;;;;2.30;0.98;;;;;;;10.68;63.05;97541.75;4487657;31;20084;-79
2023/03/26 03:09:12;;;;;;;2.78;0.90;;;;;;;10.53;64.17;97545.09;4487588;31;20093;-79
2023/03/26 03:11:39;;;;;;;2.30;1.00;;;;;;;10.80;63.33;97544.59;4487258;31;20149;-79
2023/03/26 03:14:06;;;;;;;3.67;1.20;;;;;;;10.04;66.64;97544.91;4487479;31;20153;-79
2023/03/26 03:16:33;;;;;;;1.40;0.77;;;;;;;11.33;60.33;97549.53;4487580;31;20366;-79
2023/03/26 03:22:16;;;;;;;2.45;0.90;;;;;;;11.29;60.04;97540.28;4487619;32;20102;-79
2023/03/26 03:24:43;;;;;;;1.58;0.75;;;;;;;11.00;61.44;97541.81;4487236;31;20430;-79
2023/03/26 03:27:11;;;;;;;0.77;0.70;;;;;;;11.73;58.25;97542.19;4487450;31;20161;-79
2023/03/26 03:29:38;;;;;;;2.55;1.23;;;;;;;11.80;57.27;97551.28;4487467;31;20423;-79
2023/03/26 03:32:05;;;;;;;2.33;0.90;;;;;;;11.91;56.46;97554.13;4487107;31;20076;-79
2023/03/26 03:34:31;;;;;;;;;;;;;;;11.41;56.94;97562.87;4487542;31;20130;-79
2023/03/26 03:36:58;;;;;;;2.05;0.85;;;;;;;11.30;57.12;97562.63;4487340;31;19976;-79
2023/03/26 03:43:06;;;;;;;2.90;1.02;;;;;;;10.45;59.86;97560.13;4487405;32;20098;-79
2023/03/26 03:45:33;;;;;;;3.17;0.90;;;;;;;10.24;60.95;97556.03;4486988;32;20104;-79
2023/03/26 03:48:00;;;;;;;;;;;;;;;10.03;62.49;97540.66;4487576;31;20119;-79
2023/03/26 03:50:27;;;;;;;1.40;0.90;;;;;;;10.13;62.32;97544.47;4487348;32;20325;-79
2023/03/26 03:52:54;;;;;;;2.95;0.90;;;;;;;9.38;65.02;97542.03;4486916;32;20148;-79
2023/03/26 03:55:22;;;;;;;3.55;1.30;;;;;;;7.83;71.52;97534.09;4486766;31;20091;-79
2023/03/26 03:57:51;;;;;;;1.55;0.82;;;;;;;7.45;78.41;97533.88;4487130;31;20096;-79
2023/03/26 04:00:18;;;;;;;4.95;1.12;;;;;;;8.84;71.35;97537.63;4486902;31;20110;-79
2023/03/26 04:02:45;;;;;;;2.35;0.90;;;;;;;10.57;61.88;97548.34;4487065;31;20133;-79
2023/03/26 04:05:12;;;;;;;2.10;1.00;;;;;;;11.01;58.97;97554.66;4486990;31;20092;-79
2023/03/26 04:13:18;;;;;;;2.85;1.10;;;;;;;8.86;67.92;97541.81;4486766;32;20144;-79
2023/03/26 04:15:45;;;;;;;3.33;1.25;;;;;;;9.38;66.49;97561.81;4486884;31;20446;-79
2023/03/26 04:18:12;;;;;;;1.87;0.93;;;;;;;9.34;66.52;97561.09;4486846;31;20097;-79
2023/03/26 04:20:45;;;;;;;;;;;;;;;8.49;70.48;97559.69;4486931;32;20453;-79
2023/03/26 04:23:13;;;;;;;5.20;1.62;;;;;;;8.41;71.46;97560.03;4486971;31;19988;-79
2023/03/26 04:25:49;;;;;;;2.42;1.30;;;;;;;8.52;70.95;97564.75;4486796;31;20145;-79
2023/03/26 04:32:05;;;;;;;;;;;;;;;7.97;72.69;97562.63;4487072;32;20137;-79
2023/03/26 04:34:33;;;;;;;2.90;1.23;;;;;;;7.65;74.84;97553.63;4486435;31;20046;-79
2023/03/26 04:37:01;;;;;;;2.10;1.08;;;;;;;7.68;76.27;97548.41;4486612;31;20084;-79
2023/03/26 04:39:28;;;;;;;3.22;1.20;;;;;;;8.20;74.12;97545.47;4486500;32;20089;-78
2023/03/26 04:41:56;;;;;;;3.37;1.33;;;;;;;8.45;72.63;97543.56;4485132;32;20141;-79
2023/03/26 04:44:23;;;;;;;4.30;1.40;;;;;;;7.92;75.93;97540.59;4486599;31;20151;-79
2023/03/26 04:46:54;;;;;;;3.40;1.40;;;;;;;8.00;75.75;97546.28;4486438;31;20148;-79
2023/03/26 04:53:01;;;;;;;3.80;1.50;;;;;;;8.18;75.72;97553.22;4486511;32;20111;-78
2023/03/26 04:55:40;;;;;;;3.95;1.62;;;;;;;7.96;77.13;97548.13;4485666;31;20093;-79
2023/03/26 05:01:56;;;;;;;4.12;1.95;;;;;;;8.21;77.75;97535.12;4486256;32;20149;-79
2023/03/26 05:04:23;;;;;;;4.72;1.85;;;;;;;7.79;81.32;97546.25;4485990;31;20085;-79
2023/03/26 05:06:50;;;;;;;6.85;2.17;;;;;;;7.97;81.82;97547.22;4486131;31;20500;-79
2023/03/26 05:16:15;;;;;;;7.05;2.65;;;;;;;8.48;82.24;97548.59;4485842;32;20156;-79
2023/03/26 05:18:42;;;;;;;5.82;2.28;;;;;;;8.87;79.99;97546.03;4486105;31;20080;-79
2023/03/26 05:21:09;;;;;;;;;;;;;;;8.46;83.24;97550.38;4488718;31;20076;-78
2023/03/26 05:23:36;;;;;;;6.78;2.40;;;;;;;8.30;84.91;97557.06;4488133;31;19968;-79
2023/03/26 05:26:03;;;;;;;;;;;;;;;8.03;87.12;97549.56;4488596;31;20576;-78
2023/03/26 05:28:30;;;;;;;7.30;2.55;;;;;;;8.72;83.41;97551.00;4488365;32;19986;-78
2023/03/26 05:30:56;;;;;;;;;;;;;;;8.87;82.21;97550.34;4488379;31;20076;-79
2023/03/26 05:33:23;;;;;;;8.73;2.67;;;;;;;8.82;82.50;97554.84;4488421;31;19976;-79
2023/03/26 05:36:01;;;;;;;7.60;2.92;;;;;;;9.33;80.33;97561.16;4488198;31;20104;-79
2023/03/26 05:44:14;;;;;;;6.97;2.97;;;;;;;10.39;74.45;97552.69;4488168;32;20115;-79
2023/03/26 05:46:41;;;;;;;7.85;2.65;;;;;;;11.21;73.52;97563.09;4488198;31;20097;-79
2023/03/26 05:49:07;;;;;;;;;;;;;;;11.71;72.06;97560.38;4488388;31;20093;-79
2023/03/26 05:51:34;;;;;;;5.45;2.37;;;;;;;12.83;65.63;97565.19;4487947;32;19991;-79
2023/03/26 05:54:01;;;;;;;6.40;2.42;;;;;;;13.51;61.35;97572.34;4487734;32;20100;-79
2023/03/26 05:56:28;;;;;;;5.85;2.12;;;;;;;13.81;60.30;97564.38;4488141;31;20104;-79
2023/03/26 06:02:54;;;;;;;4.62;2.08;;;;;;;15.90;52.47;97565.84;4488149;32;20465;-79
2023/03/26 06:05:22;;;;;;;4.90;2.10;;;;;;;18.28;46.08;97575.41;4487810;31;20101;-80
2023/03/26 06:07:49;;;;;;;6.00;2.08;;;;;;;18.32;44.65;97571.63;4488086;31;20456;-79
2023/03/26 06:10:16;;;;;;;5.97;2.20;;;;;;;18.86;42.71;97568.03;4488114;31;20147;-79
2023/03/26 06:12:44;;;;;;;4.50;1.92;;;;;;;18.45;43.71;97570.47;4487734;31;20427;-80
2023/03/26 06:15:11;;;;;;;4.12;1.80;;;;;;;19.70;42.59;97577.37;4487744;31;20093;-79
2023/03/26 06:21:59;;;;;;;4.25;1.80;;;;;;;21.55;38.05;97566.59;4487725;32;20468;-80
2023/03/26 06:24:26;;;;;;;5.78;1.98;;;;;;;19.90;41.47;97568.63;4487903;31;20129;-79
2023/03/26 06:26:53;;;;;;;4.68;1.90;;;;;;;20.29;40.50;97567.81;4487445;31;20519;-80
2023/03/26 06:29:20;;;;;;;4.57;1.87;;;;;;;19.67;41.99;97567.16;4487862;31;20114;-79
2023/03/26 06:31:47;;;;;;;4.35;1.75;;;;;;;18.43;45.23;97567.19;4487668;31;20446;-79
2023/03/26 06:34:14;;;;;;;4.12;1.90;;;;;;;17.67;46.18;97572.50;4487497;31;20107;-80
2023/03/26 06:36:41;;;;;;;4.82;2.03;;;;;;;17.76;46.53;97564.81;4487829;31;20146;-79
2023/03/26 06:39:08;;;;;;;4.82;1.92;;;;;;;16.71;48.42;97568.56;4487848;31;20393;-79
2023/03/26 06:41:35;;;;;;;5.40;1.83;;;;;;;16.33;50.19;97562.72;4487438;31;20101;-80
2023/03/26 06:44:02;;;;;;;4.32;2.00;;;;;;;16.42;51.37;97562.87;4487788;31;20097;-79
2023/03/26 06:46:29;;;;;;;4.60;1.80;;;;;;;16.46;51.90;97571.28;4487808;31;20101;-79
2023/03/26 06:52:37;;;;;;;4.47;1.77;;;;;;;17.50;48.51;97579.03;4487800;32;20498;-79
2023/03/26 06:55:05;;;;;;;5.72;1.90;;;;;;;17.18;49.36;97582.34;4487130;31;20141;-79
2023/03/26 06:57:32;;;;;;;3.95;1.62;;;;;;;16.53;52.19;97574.25;4487680;31;20085;-79
2023/03/26 06:59:59;;;;;;;3.97;1.58;;;;;;;17.08;51.10;97580.56;4487685;32;20161;-79
2023/03/26 07:02:26;;;;;;;3.75;1.62;;;;;;;16.81;50.99;97573.91;4487435;31;20135;-79
2023/03/26 07:04:53;;;;;;;3.72;1.70;;;;;;;17.48;49.71;97579.16;4487597;31;20397;-79
2023/03/26 07:07:22;;;;;;;2.95;1.50;;;;;;;17.43;48.24;97581.25;4487585;31;20097;-79
2023/03/26 07:09:50;;;;;;;4.80;1.77;;;;;;;17.14;49.42;97572.28;4487463;31;20111;-79
2023/03/26 07:12:17;;;;;;;3.33;1.55;;;;;;;16.66;50.24;97573.22;4487583;31;20088;-79
2023/03/26 07:14:44;;;;;;;4.93;1.80;;;;;;;17.18;48.32;97576.31;4486352;32;20212;-79
2023/03/26 07:17:11;;;;;;;4.85;2.00;;;;;;;16.97;48.97;97571.78;4487341;31;20103;-79
2023/03/26 07:19:37;;;;;;;4.35;1.60;;;;;;;16.95;48.05;97565.03;4487537;31;20084;-79
2023/03/26 07:22:05;;;;;;;5.47;1.75;;;;;;;16.19;51.11;97569.78;4487529;31;20084;-79
2023/03/26 07:24:32;;;;;;;3.42;1.50;;;;;;;15.60;51.96;97571.44;4487178;31;20085;-79
2023/03/26 07:27:06;;;;;;;4.05;1.70;;;;;;;15.52;52.51;97569.34;4487489;31;20443;-79
2023/03/26 07:29:36;;;;;;;4.80;1.77;;;;;;;14.75;53.98;97572.94;4487290;32;20103;-79
2023/03/26 07:32:15;;;;;;;3.75;1.62;;;;;;;14.58;55.06;97565.47;4486316;32;20093;-79
2023/03/26 07:34:47;;;;;;;4.87;1.60;;;;;;;14.98;55.27;97563.59;4486204;32;20102;-79
2023/03/26 07:44:37;;;;;;;4.10;1.37;;;;;;;16.85;49.30;97567.50;4487100;32;20141;-79
2023/03/26 07:47:24;;;;;;;3.97;1.65;;;;;;;17.16;49.30;97563.38;4487215;32;20081;-79
2023/03/26 07:49:53;;;;;;;4.28;1.83;;;;;;;17.79;48.10;97563.72;4486084;32;20165;-79
2023/03/26 07:52:20;;;;;;;3.10;1.33;;;;;;;17.56;48.44;97555.91;4486961;31;20426;-79
2023/03/26 07:54:48;;;;;;;3.53;1.50;;;;;;;17.32;47.63;97553.41;4486831;31;20168;-79
2023/03/26 07:57:27;;;;;;;3.30;1.30;;;;;;;17.61;47.54;97558.12;4487197;31;20076;-79
2023/03/26 08:00:09;;;;;;;4.47;1.50;;;;;;;16.51;49.69;97550.12;4486932;31;20089;-79
2023/03/26 08:02:54;;;;;;;2.62;1.30;;;;;;;16.77;49.88;97541.19;4487206;31;20144;-79
2023/03/26 08:05:25;;;;;;;5.43;2.03;;;;;;;16.66;49.83;97552.38;4486846;31;20092;-79
2023/03/26 08:08:29;;;;;;;2.65;1.30;;;;;;;16.44;51.19;97547.97;4487189;31;20064;-79
2023/03/26 08:11:25;;;;;;;4.30;1.67;;;;;;;16.48;51.20;97535.53;4486934;32;20111;-79
2023/03/26 08:14:14;;;;;;;4.35;1.52;;;;;;;16.00;51.70;97534.78;4486760;31;20500;-79
2023/03/26 08:16:44;;;;;;;4.40;1.60;;;;;;;16.05;52.07;97530.06;4486931;31;20072;-79
2023/03/26 08:23:22;;;;;;;3.03;1.37;;;;;;;16.96;48.89;97533.63;4486782;32;20157;-79
2023/03/26 08:26:18;;;;;;;3.87;1.60;;;;;;;17.35;49.16;97532.34;4485431;32;20117;-79
2023/03/26 08:31:56;;;;;;;2.80;1.35;;;;;;;18.23;46.41;97525.38;4486789;32;20110;-79
2023/03/26 08:34:23;;;;;;;2.30;1.25;;;;;;;18.37;45.73;97530.28;4485144;32;20111;-79
2023/03/26 08:36:50;;;;;;;2.37;1.20;;;;;;;17.70;47.15;97520.09;4486514;31;20107;-79
2023/03/26 08:42:48;;;;;;;2.05;1.10;;;;;;;17.18;48.52;97516.34;4486559;32;20152;-79
2023/03/26 08:45:43;;;;;;;2.22;1.00;;;;;;;17.62;45.37;97508.44;4486518;31;20088;-79
2023/03/26 08:52:23;;;;;;;1.33;0.80;;;;;;;17.70;43.49;97507.88;4486449;32;20498;-79
2023/03/26 08:55:05;;;;;;;1.45;0.90;;;;;;;17.33;43.09;97497.75;4487959;31;20072;-79
2023/03/26 08:58:14;;;;;;;1.50;0.90;;;;;;;18.42;43.19;97496.78;4488586;31;20366;-79
2023/03/26 09:01:14;;;;;;;3.53;1.02;;;;;;;18.57;40.12;97495.50;4488547;32;20107;-79
2023/03/26 09:04:12;;;;;;;3.60;1.10;;;;;;;18.93;40.39;97490.78;4488624;31;20136;-79
2023/03/26 09:06:42;;;;;;;2.20;1.10;;;;;;;18.93;41.49;97488.97;4488572;31;20431;-79
2023/03/26 09:12:49;;;;;;;1.20;0.80;;;;;;;19.61;38.19;97478.75;4488437;32;20115;-79
2023/03/26 09:15:41;;;;;;;0.80;0.60;;;;;;;18.63;37.40;97475.88;4488155;31;20076;-79
2023/03/26 09:18:35;;;;;;;0.80;0.52;;;;;;;19.12;36.28;97480.38;4488357;31;20114;-79
2023/03/26 09:21:27;;;;;;;0.28;0.28;;;;;;;19.24;35.38;97475.84;4487418;32;20127;-79
2023/03/26 09:24:32;;;;;;;1.15;0.32;;;;;;;18.86;35.57;97469.53;4488117;31;20359;-79
2023/03/26 09:27:26;;;;;;;0.57;0.40;;;;;;;18.00;37.25;97475.03;4488261;31;20092;-79
2023/03/26 09:30:22;;;;;;;1.00;0.70;;;;;;;18.59;36.60;97461.41;4486908;32;20081;-79
2023/03/26 09:33:17;;;;;;;0.45;0.45;;;;;;;18.74;37.09;97457.53;4487095;32;20160;-79
2023/03/26 09:35:51;;;;;;;0.93;0.70;;;;;;;19.07;37.77;97454.63;4487032;32;20511;-79
2023/03/26 09:42:15;;;;;;;0.60;0.60;;;;;;;18.71;37.04;97463.00;4488184;32;20106;-79
2023/03/26 09:44:57;;;;;;;1.60;0.80;;;;;;;18.42;38.14;97452.38;4486918;32;20100;-79
2023/03/26 09:47:30;;;;;;;0.93;0.55;;;;;;;18.50;37.15;97450.78;4488309;31;20160;-79
2023/03/26 09:50:07;;;;;;;1.80;0.65;;;;;;;18.16;39.36;97438.88;4488036;31;20143;-79
2023/03/26 09:52:53;;;;;;;2.00;1.00;;;;;;;18.59;38.02;97430.88;4487069;32;20081;-79
2023/03/26 09:55:39;;;;;;;0.65;0.60;;;;;;;18.77;36.17;97418.88;4486632;32;20111;-79
2023/03/26 10:04:43;;;;;;;0.98;0.60;;;;;;;19.17;35.75;97406.75;4487285;32;20145;-81
2023/03/26 10:07:36;;;;;;;1.60;0.55;;;;;;;19.56;33.21;97394.56;4486986;32;20096;-79
2023/03/26 10:10:48;;;;;;;0.90;0.70;;;;;;;19.60;34.45;97406.44;4486944;32;20108;-79
2023/03/26 10:13:25;;;;;;;1.05;0.70;;;;;;;19.66;33.94;97392.78;4485056;32;20125;-79
2023/03/26 10:16:22;;;;;;;0.85;0.52;;;;;;;20.18;32.98;97396.72;4487973;31;20068;-79
2023/03/26 10:22:39;;;;;;;2.03;0.60;;;;;;;20.69;33.89;97392.88;4487993;32;20103;-79
2023/03/26 10:25:21;;;;;;;2.10;0.82;;;;;;;20.21;33.33;97386.00;4487777;31;20084;-79
2023/03/26 10:34:36;;;;;;;1.55;0.70;;;;;;;20.60;31.79;97371.94;4487907;32;20412;-79
2023/03/26 10:37:31;;;;;;;1.77;0.80;;;;;;;20.62;34.35;97359.53;4487849;31;20140;-79
2023/03/26 10:40:18;;;;;;;0.68;0.60;;;;;;;20.36;34.06;97349.66;4487598;31;20076;-79
2023/03/26 10:42:53;;;;;;;1.62;0.80;;;;;;;20.02;33.05;97351.97;4487966;31;20130;-79
2023/03/26 10:45:36;;;;;;;2.05;0.90;;;;;;;20.96;34.76;97357.97;4487934;31;20096;-79
2023/03/26 10:52:07;;;;;;;3.53;1.10;;;;;;;20.60;35.60;97341.31;4487783;32;20099;-79
2023/03/26 11:00:24;;;;;;;1.08;0.77;;;;;;;21.30;36.73;97346.88;4486989;32;20664;-79
2023/03/26 11:03:17;;;;;;;1.58;0.90;;;;;;;21.58;35.30;97339.72;4487774;32;20069;-79
2023/03/26 11:06:05;;;;;;;1.87;0.93;;;;;;;21.70;33.98;97329.84;4487634;31;20088;-79
2023/03/26 11:12:18;;;;;;;1.20;0.90;;;;;;;21.13;32.88;97316.19;4487648;32;20099;-79
2023/03/26 11:15:12;;;;;;;1.80;0.77;;;;;;;20.39;35.68;97317.13;4487334;31;20635;-79
2023/03/26 11:17:46;;;;;;;1.70;0.68;;;;;;;19.92;35.75;97317.13;4487507;31;20111;-79
2023/03/26 11:20:41;;;;;;;2.37;0.88;;;;;;;20.19;35.11;97314.56;4487609;31;20148;-79
2023/03/26 11:23:24;;;;;;;1.20;0.90;;;;;;;19.75;37.13;97312.63;4487316;31;20747;-79
2023/03/26 11:25:54;;;;;;;1.30;0.70;;;;;;;20.46;36.75;97305.94;4487630;31;20081;-79
2023/03/26 11:29:05;;;;;;;1.30;0.70;;;;;;;19.67;35.44;97292.38;4487277;31;20092;-79
2023/03/26 11:32:04;;;;;;;1.90;0.85;;;;;;;20.11;34.83;97283.03;4480059;31;20154;-79
2023/03/26 11:34:43;;;;;;;1.30;0.70;;;;;;;20.34;36.59;97288.75;4487452;32;20099;-79
2023/03/26 11:37:22;;;;;;;1.52;0.88;;;;;;;20.32;34.13;97277.59;4487273;31;20095;-79
2023/03/26 11:39:52;;;;;;;1.50;0.60;;;;;;;19.90;35.98;97274.56;4486301;32;20104;-79
2023/03/26 11:42:23;;;;;;;1.02;0.60;;;;;;;20.19;35.40;97267.41;4478797;32;229321;-79
2023/03/26 11:44:54;;;;;;;0.75;0.57;;;;;;;20.11;34.65;97267.34;4487349;31;20431;-79
2023/03/26 11:54:16;;;;;;;1.67;0.90;;;;;;;19.76;35.87;97248.81;4487236;32;20152;-79
2023/03/26 11:56:53;;;;;;;1.50;0.85;;;;;;;19.81;36.19;97229.13;4486816;31;20144;-79
2023/03/26 11:59:49;;;;;;;1.48;0.73;;;;;;;20.42;35.01;97219.91;4485911;32;20080;-79
2023/03/26 12:02:24;;;;;;;0.95;0.70;;;;;;;19.72;36.40;97216.06;4487372;31;20258;-79
2023/03/26 12:05:12;;;;;;;0.68;0.68;;;;;;;18.76;37.03;97215.19;4486802;31;20565;-79
2023/03/26 12:07:59;;;;;;;2.55;1.00;;;;;;;18.70;37.02;97200.03;4473069;32;20473;-79
2023/03/26 12:10:30;;;;;;;1.55;0.88;;;;;;;19.99;36.12;97197.78;4486881;31;20077;-79
2023/03/26 12:13:00;;;;;;;1.33;0.80;;;;;;;19.53;35.91;97188.94;4486040;32;20154;-79
2023/03/26 12:15:28;;;;;;;0.60;0.60;;;;;;;19.55;36.47;97184.44;4485683;32;20104;-79
2023/03/26 12:24:04;;;;;;;0.65;0.60;;;;;;;19.53;36.10;97175.03;4486913;32;20183;-79
2023/03/26 12:26:45;;;;;;;1.73;0.80;;;;;;;20.05;36.20;97183.28;4486623;31;20123;-79
2023/03/26 12:29:16;;;;;;;1.77;0.88;;;;;;;20.28;33.46;97168.00;4487033;32;20386;-79
2023/03/26 12:32:06;;;;;;;2.47;0.93;;;;;;;18.76;35.80;97161.12;4488574;31;20076;-79
2023/03/26 12:34:35;;;;;;;1.55;0.70;;;;;;;19.54;36.15;97161.81;4488835;31;20137;-79
2023/03/26 12:37:04;;;;;;;1.80;0.77;;;;;;;19.33;35.84;97151.56;4488673;31;20431;-78
2023/03/26 12:43:02;;;;;;;2.03;0.80;;;;;;;18.89;36.04;97139.12;4488765;32;20570;-79
2023/03/26 12:45:55;;;;;;;1.77;0.80;;;;;;;19.30;35.11;97127.47;4488529;31;20115;-79
2023/03/26 12:48:41;;;;;;;0.95;0.77;;;;;;;19.21;34.76;97117.88;4488517;31;20093;-79
2023/03/26 12:51:15;;;;;;;2.05;1.00;;;;;;;19.02;35.66;97121.34;4488605;31;20152;-79
2023/03/26 12:53:50;;;;;;;1.27;0.68;;;;;;;19.03;35.32;97118.63;4488413;31;20149;-79
2023/03/26 12:56:46;;;;;;;1.40;0.80;;;;;;;19.49;35.16;97119.56;4487324;32;20101;-79
2023/03/26 13:02:43;;;;;;;1.23;0.80;;;;;;;19.47;34.75;97107.63;4486245;32;20216;-79
2023/03/26 13:05:28;;;;;;;1.12;0.70;;;;;;;18.78;36.26;97117.38;4487336;32;20103;-79
2023/03/26 13:12:04;;;;;;;1.73;0.80;;;;;;;19.16;36.57;97096.56;4488492;32;20160;-79
2023/03/26 13:14:54;;;;;;;1.27;0.82;;;;;;;19.28;35.93;97092.81;4488167;31;20076;-79
2023/03/26 13:17:28;;;;;;;1.05;0.68;;;;;;;18.83;35.26;97090.84;4479366;32;20362;-78
2023/03/26 13:19:58;;;;;;;1.80;0.70;;;;;;;19.38;34.64;97077.91;4488520;31;20133;-79
2023/03/26 13:22:34;;;;;;;1.50;0.77;;;;;;;19.30;34.68;97083.03;4488083;31;20093;-79
2023/03/26 13:25:20;;;;;;;2.28;0.90;;;;;;;19.05;34.73;97081.87;4488439;31;20085;-79
2023/03/26 13:32:00;;;;;;;1.40;0.70;;;;;;;19.16;35.60;97076.47;4488400;32;20115;-79
2023/03/26 13:34:48;;;;;;;1.30;0.70;;;;;;;19.31;33.89;97059.34;4488143;31;20152;-79
2023/03/26 13:37:17;;;;;;;1.62;0.80;;;;;;;18.91;34.48;97056.16;4487047;32;20088;-78
2023/03/26 13:40:15;;;;;;;2.37;0.95;;;;;;;18.98;35.20;97039.78;4486186;32;20475;-79
2023/03/26 13:42:47;;;;;;;2.05;1.00;;;;;;;18.95;35.52;97039.25;4487960;31;20152;-79
2023/03/26 13:45:41;;;;;;;2.17;0.80;;;;;;;18.92;35.31;97050.78;4488193;31;20092;-79
2023/03/26 13:52:16;;;;;;;1.80;0.80;;;;;;;18.92;37.74;97027.25;4488206;32;20119;-79
2023/03/26 13:54:51;;;;;;;1.17;0.73;;;;;;;19.35;36.75;97024.09;4488185;32;20085;-79
2023/03/26 13:57:23;;;;;;;1.52;0.90;;;;;;;19.25;36.84;97022.50;4486735;32;20084;-79
2023/03/26 14:00:15;;;;;;;1.55;0.90;;;;;;;18.62;38.08;97020.44;4487044;32;20084;-78
2023/03/26 14:02:43;;;;;;;2.12;1.00;;;;;;;18.83;37.40;97006.41;4487725;31;20084;-79
2023/03/26 14:05:12;;;;;;;1.50;0.80;;;;;;;19.23;37.72;96999.06;4488151;31;20092;-79
2023/03/26 14:12:01;;;;;;;2.25;1.05;;;;;;;19.79;37.25;96994.69;4487776;32;20157;-79
2023/03/26 14:14:49;;;;;;;1.00;0.90;;;;;;;19.91;37.40;96981.22;4486906;32;20133;-78
2023/03/26 14:17:16;;;;;;;1.92;1.10;;;;;;;19.78;36.71;96983.41;4487740;31;20123;-79
2023/03/26 14:19:46;;;;;;;2.35;1.02;;;;;;;20.14;35.27;96973.72;4487987;31;20088;-79
2023/03/26 14:22:18;;;;;;;2.42;1.00;;;;;;;19.78;35.76;96978.16;4488064;32;20430;-79
2023/03/26 14:25:07;;;;;;;2.00;0.85;;;;;;;19.94;37.35;96977.47;4486381;32;20072;-79
2023/03/26 14:27:47;;;;;;;2.78;1.10;;;;;;;20.12;36.31;96974.84;4487889;32;20199;-79
2023/03/26 14:30:35;;;;;;;2.60;1.00;;;;;;;19.42;37.44;96972.00;4488019;31;20084;-79
2023/03/26 14:33:16;;;;;;;2.62;1.00;;;;;;;19.57;37.22;96967.97;4487925;31;20151;-79
2023/03/26 14:36:12;;;;;;;1.77;0.90;;;;;;;20.00;36.23;96974.28;4487884;31;20351;-78
2023/03/26 14:42:22;;;;;;;1.30;0.65;;;;;;;19.40;35.74;96960.06;4487886;32;20466;-79
2023/03/26 14:45:08;;;;;;;0.93;0.70;;;;;;;19.03;36.37;96950.44;4487660;31;20084;-79
2023/03/26 14:48:12;;;;;;;1.58;0.90;;;;;;;18.87;36.71;96943.25;4487743;31;20103;-78
2023/03/26 14:51:06;;;;;;;2.37;0.95;;;;;;;18.74;36.64;96929.69;4462927;32;20180;-79
2023/03/26 14:53:35;;;;;;;3.20;1.20;;;;;;;18.75;36.81;96928.72;4463113;31;20093;-78
2023/03/26 14:56:11;;;;;;;1.83;0.70;;;;;;;18.47;37.53;96927.81;4487620;31;20076;-79
2023/03/26 15:02:22;;;;;;;2.33;1.00;;;;;;;18.82;37.07;96921.09;4487431;32;20111;-79
2023/03/26 15:04:52;;;;;;;1.35;0.80;;;;;;;18.82;36.75;96913.28;4487781;31;20100;-79
2023/03/26 15:07:40;;;;;;;3.00;0.88;;;;;;;19.04;37.56;96912.91;4487361;31;20502;-79
2023/03/26 15:10:38;;;;;;;1.85;0.90;;;;;;;19.01;37.07;96895.72;4486454;32;20072;-79
2023/03/26 15:13:44;;;;;;;3.08;1.00;;;;;;;18.61;37.83;96895.16;4487365;32;20097;-79
2023/03/26 15:16:28;;;;;;;1.70;0.90;;;;;;;19.01;37.21;96885.25;4486429;32;20105;-79
2023/03/26 15:22:26;;;;;;;1.42;1.00;;;;;;;18.42;38.30;96876.00;4487607;32;20159;-79
2023/03/26 15:25:25;;;;;;;2.40;1.10;;;;;;;19.03;37.46;96874.66;4487628;31;20096;-79